Time;durP1;ratioP1;P1;durP2;ratioP2;P2;SDS_P1;SDS_P2;PMS_P1;PMS_P2;Temp;Humidity;BMP_temperature;BMP_pressure;BME280_temperature;BME280_humidity;BME280_pressure;Samples;Min_cycle;Max_cycle;Signal;HPM_P1;HPM_P2
2023/05/20 00:00:48;;;;;;;1.90;1.70;;;;;;;;;;8298021;28;20062;-60
2023/05/20 00:04:49;;;;;;;3.78;1.55;;;;;;;;;;8296793;28;20483;-59
2023/05/20 00:08:49;;;;;;;2.00;1.60;;;;;;;;;;8300967;28;20044;-58
2023/05/20 00:12:49;;;;;;;2.93;1.40;;;;;;;;;;8302389;28;20272;-59
2023/05/20 00:16:49;;;;;;;5.43;1.70;;;;;;;;;;8300327;28;20272;-59
2023/05/20 00:20:50;;;;;;;1.83;1.60;;;;;;;;;;8297072;28;20021;-61
2023/05/20 00:24:50;;;;;;;2.85;1.80;;;;;;;;;;8297683;28;20047;-58
2023/05/20 00:28:50;;;;;;;2.20;1.63;;;;;;;;;;8295861;28;20045;-58
2023/05/20 00:32:50;;;;;;;1.90;1.60;;;;;;;;;;8296031;28;20418;-58
2023/05/20 00:36:51;;;;;;;1.88;1.50;;;;;;;;;;8297564;28;20033;-59
2023/05/20 00:40:51;;;;;;;2.37;1.50;;;;;;;;;;8295881;28;20033;-58
2023/05/20 00:44:51;;;;;;;2.22;1.70;;;;;;;;;;8295896;28;20361;-59
2023/05/20 00:48:52;;;;;;;4.10;1.52;;;;;;;;;;8296471;28;20043;-58
2023/05/20 00:52:54;;;;;;;3.75;1.70;;;;;;;;;;8294974;28;20685;-59
2023/05/20 00:56:54;;;;;;;2.28;1.65;;;;;;;;;;8297334;28;20032;-59
2023/05/20 01:00:55;;;;;;;2.13;1.63;;;;;;;;;;8293334;28;20065;-58
2023/05/20 01:04:56;;;;;;;2.35;1.73;;;;;;;;;;8296530;28;20143;-59
2023/05/20 01:08:56;;;;;;;3.60;1.70;;;;;;;;;;8295545;28;20853;-59
2023/05/20 01:12:58;;;;;;;3.75;1.88;;;;;;;;;;8298009;28;20580;-60
2023/05/20 01:17:01;;;;;;;2.63;1.70;;;;;;;;;;8295241;28;20037;-58
2023/05/20 01:21:01;;;;;;;1.98;1.70;;;;;;;;;;8294048;28;20548;-59
2023/05/20 01:25:01;;;;;;;2.63;1.50;;;;;;;;;;8295449;28;20401;-59
2023/05/20 01:29:03;;;;;;;3.60;1.67;;;;;;;;;;8291834;28;20034;-58
2023/05/20 01:33:05;;;;;;;2.72;1.70;;;;;;;;;;8296198;28;20049;-58
2023/05/20 01:37:07;;;;;;;2.08;1.70;;;;;;;;;;8298845;28;20453;-60
2023/05/20 01:41:07;;;;;;;2.25;1.75;;;;;;;;;;8294715;28;20024;-59
2023/05/20 01:45:08;;;;;;;3.13;1.90;;;;;;;;;;8292854;28;20021;-58
2023/05/20 01:49:08;;;;;;;2.35;1.52;;;;;;;;;;8297610;28;20796;-58
2023/05/20 01:53:09;;;;;;;3.67;1.60;;;;;;;;;;8294659;28;20556;-58
2023/05/20 01:57:09;;;;;;;3.33;1.75;;;;;;;;;;8294545;28;20025;-61
2023/05/20 02:01:09;;;;;;;8.30;1.95;;;;;;;;;;8293389;28;20041;-58
2023/05/20 02:05:09;;;;;;;5.10;2.33;;;;;;;;;;8294311;28;20064;-58
2023/05/20 02:09:10;;;;;;;3.17;1.77;;;;;;;;;;8296532;28;20055;-58
2023/05/20 02:13:10;;;;;;;3.17;1.90;;;;;;;;;;8298457;28;20284;-58
2023/05/20 02:17:11;;;;;;;2.37;1.90;;;;;;;;;;8300974;28;20029;-59
2023/05/20 02:21:11;;;;;;;2.70;2.00;;;;;;;;;;8301828;28;20078;-58
2023/05/20 02:25:11;;;;;;;2.05;1.75;;;;;;;;;;8303495;28;20116;-58
2023/05/20 02:29:11;;;;;;;2.45;1.90;;;;;;;;;;8299455;28;20035;-58
2023/05/20 02:33:12;;;;;;;2.58;1.80;;;;;;;;;;8301619;28;20056;-58
2023/05/20 02:37:12;;;;;;;3.70;2.15;;;;;;;;;;8301960;28;20028;-58
2023/05/20 02:41:13;;;;;;;3.33;2.10;;;;;;;;;;8298587;28;20261;-58
2023/05/20 02:45:13;;;;;;;4.20;2.17;;;;;;;;;;8301432;28;20120;-59
2023/05/20 02:49:13;;;;;;;2.78;2.22;;;;;;;;;;8301715;28;20086;-58
2023/05/20 02:53:14;;;;;;;2.30;2.00;;;;;;;;;;8299851;28;20068;-58
2023/05/20 02:57:14;;;;;;;2.42;2.08;;;;;;;;;;8300581;28;20021;-58
2023/05/20 03:01:14;;;;;;;5.03;2.20;;;;;;;;;;8297451;28;20037;-58
2023/05/20 03:05:14;;;;;;;3.47;2.00;;;;;;;;;;8300919;28;20033;-58
2023/05/20 03:09:15;;;;;;;3.28;2.05;;;;;;;;;;8299505;28;20025;-58
2023/05/20 03:13:15;;;;;;;3.38;2.20;;;;;;;;;;8300188;28;20025;-58
2023/05/20 03:17:15;;;;;;;3.78;2.00;;;;;;;;;;8298968;28;20134;-58
2023/05/20 03:21:15;;;;;;;5.40;2.30;;;;;;;;;;8302845;28;20157;-58
2023/05/20 03:25:16;;;;;;;4.13;2.50;;;;;;;;;;8301897;28;20765;-58
2023/05/20 03:29:16;;;;;;;2.40;2.17;;;;;;;;;;8301521;28;20033;-58
2023/05/20 03:33:17;;;;;;;3.60;2.38;;;;;;;;;;8298030;28;20037;-58
2023/05/20 03:37:17;;;;;;;3.33;2.30;;;;;;;;;;8303040;28;21050;-58
2023/05/20 03:41:17;;;;;;;2.83;2.10;;;;;;;;;;8299296;28;21025;-58
2023/05/20 03:45:17;;;;;;;5.47;2.40;;;;;;;;;;8299516;28;20447;-58
2023/05/20 03:49:18;;;;;;;3.77;2.20;;;;;;;;;;8296212;28;20554;-58
2023/05/20 03:53:19;;;;;;;2.42;2.20;;;;;;;;;;8296580;28;20284;-58
2023/05/20 03:57:19;;;;;;;3.85;2.42;;;;;;;;;;8297363;28;20021;-58
2023/05/20 04:01:20;;;;;;;5.40;2.50;;;;;;;;;;8297418;28;20041;-60
2023/05/20 04:05:20;;;;;;;2.55;2.22;;;;;;;;;;8300419;28;20055;-58
2023/05/20 04:09:21;;;;;;;6.25;2.55;;;;;;;;;;8296972;28;20846;-58
2023/05/20 04:13:21;;;;;;;4.45;2.60;;;;;;;;;;8297969;28;20037;-58
2023/05/20 04:17:21;;;;;;;4.43;2.30;;;;;;;;;;8295149;28;20059;-60
2023/05/20 04:21:21;;;;;;;3.40;2.63;;;;;;;;;;8298622;28;20059;-58
2023/05/20 04:25:22;;;;;;;4.75;2.50;;;;;;;;;;8299777;28;20037;-58
2023/05/20 04:29:22;;;;;;;2.90;2.30;;;;;;;;;;8298962;28;20025;-58
2023/05/20 04:33:23;;;;;;;4.18;2.20;;;;;;;;;;8296777;28;20094;-58
2023/05/20 04:37:24;;;;;;;2.15;2.00;;;;;;;;;;8297635;28;20032;-58
2023/05/20 04:41:24;;;;;;;6.78;2.20;;;;;;;;;;8297880;28;21091;-58
2023/05/20 04:45:25;;;;;;;4.15;2.47;;;;;;;;;;8295175;28;20862;-58
2023/05/20 04:49:25;;;;;;;2.33;1.98;;;;;;;;;;8296155;28;20529;-58
2023/05/20 04:53:26;;;;;;;3.55;2.40;;;;;;;;;;8290049;28;20036;-58
2023/05/20 04:57:26;;;;;;;3.25;2.30;;;;;;;;;;8291624;28;20615;-58
2023/05/20 05:01:26;;;;;;;3.95;2.30;;;;;;;;;;8285388;28;20048;-58
2023/05/20 05:05:27;;;;;;;3.10;2.03;;;;;;;;;;8281979;28;20032;-58
2023/05/20 05:09:27;;;;;;;4.63;2.20;;;;;;;;;;8293852;28;20287;-58
2023/05/20 05:13:27;;;;;;;4.60;2.75;;;;;;;;;;8295104;28;20037;-58
2023/05/20 05:17:27;;;;;;;2.35;2.15;;;;;;;;;;8295109;28;20053;-58
2023/05/20 05:21:27;;;;;;;4.53;2.83;;;;;;;;;;8296229;28;20570;-58
2023/05/20 05:25:27;;;;;;;2.78;2.53;;;;;;;;;;8297390;28;20111;-58
2023/05/20 05:29:28;;;;;;;3.38;2.35;;;;;;;;;;8298147;28;20021;-58
2023/05/20 05:33:29;;;;;;;3.90;2.30;;;;;;;;;;8297607;28;20048;-58
2023/05/20 05:37:29;;;;;;;3.17;2.40;;;;;;;;;;8297940;28;20029;-59
2023/05/20 05:41:29;;;;;;;3.83;2.47;;;;;;;;;;8295844;28;21202;-58
2023/05/20 05:45:30;;;;;;;2.50;2.30;;;;;;;;;;8296063;28;20044;-59
2023/05/20 05:49:30;;;;;;;3.67;2.20;;;;;;;;;;8301140;28;20036;-58
2023/05/20 05:53:30;;;;;;;3.60;2.58;;;;;;;;;;8305731;28;20025;-58
2023/05/20 05:57:30;;;;;;;3.33;2.30;;;;;;;;;;8302650;28;20123;-59
2023/05/20 06:01:30;;;;;;;5.28;2.58;;;;;;;;;;8318818;28;20071;-59
2023/05/20 06:05:31;;;;;;;2.85;2.40;;;;;;;;;;8302150;28;20039;-59
2023/05/20 06:09:31;;;;;;;3.93;2.63;;;;;;;;;;8301971;28;20925;-59
2023/05/20 06:13:31;;;;;;;4.47;2.67;;;;;;;;;;8302617;28;20287;-59
2023/05/20 06:17:31;;;;;;;3.95;2.78;;;;;;;;;;8296539;28;20065;-60
2023/05/20 06:21:32;;;;;;;2.80;2.60;;;;;;;;;;8300614;28;20338;-58
2023/05/20 06:25:32;;;;;;;2.92;2.60;;;;;;;;;;8303095;28;20282;-59
2023/05/20 06:29:32;;;;;;;3.53;2.80;;;;;;;;;;8299809;28;20819;-58
2023/05/20 06:33:32;;;;;;;3.65;3.03;;;;;;;;;;8301515;28;20083;-58
2023/05/20 06:37:32;;;;;;;4.80;3.00;;;;;;;;;;8300851;28;20029;-59
2023/05/20 06:41:32;;;;;;;5.32;2.80;;;;;;;;;;8296731;28;20028;-59
2023/05/20 06:45:33;;;;;;;4.70;2.80;;;;;;;;;;8297870;28;20048;-59
2023/05/20 06:49:33;;;;;;;4.45;3.10;;;;;;;;;;8298311;28;20120;-59
2023/05/20 06:53:33;;;;;;;3.83;2.95;;;;;;;;;;8301123;28;20029;-60
2023/05/20 06:57:33;;;;;;;3.43;3.00;;;;;;;;;;8296759;28;20904;-59
2023/05/20 07:01:33;;;;;;;4.30;2.92;;;;;;;;;;8297349;28;20284;-60
2023/05/20 07:05:34;;;;;;;4.03;3.10;;;;;;;;;;8297591;28;20029;-60
2023/05/20 07:09:34;;;;;;;3.72;2.92;;;;;;;;;;8295924;28;20735;-59
2023/05/20 07:13:34;;;;;;;5.60;3.15;;;;;;;;;;8296926;28;20099;-60
2023/05/20 07:17:35;;;;;;;6.88;3.30;;;;;;;;;;8295971;28;20041;-59
2023/05/20 07:21:35;;;;;;;4.57;3.30;;;;;;;;;;8297510;28;20593;-59
2023/05/20 07:25:35;;;;;;;5.00;3.15;;;;;;;;;;8298145;28;20041;-59
2023/05/20 07:29:35;;;;;;;6.07;3.60;;;;;;;;;;8300647;28;20102;-59
2023/05/20 07:33:36;;;;;;;4.60;3.88;;;;;;;;;;8297367;28;20045;-59
2023/05/20 07:37:36;;;;;;;3.42;3.10;;;;;;;;;;8297910;28;20025;-59
2023/05/20 07:41:37;;;;;;;4.15;3.15;;;;;;;;;;8299567;28;20033;-60
2023/05/20 07:45:37;;;;;;;5.47;3.40;;;;;;;;;;8296139;28;20525;-59
2023/05/20 07:49:37;;;;;;;4.95;3.67;;;;;;;;;;8299303;28;20172;-59
2023/05/20 07:53:38;;;;;;;3.90;3.50;;;;;;;;;;8299229;28;20539;-59
2023/05/20 07:57:38;;;;;;;3.80;3.30;;;;;;;;;;8298121;28;20117;-59
2023/05/20 08:01:40;;;;;;;4.82;3.63;;;;;;;;;;8294928;28;20061;-59
2023/05/20 08:05:40;;;;;;;4.43;3.60;;;;;;;;;;8297829;28;20068;-59
2023/05/20 08:09:40;;;;;;;5.82;3.80;;;;;;;;;;8298136;28;20642;-60
2023/05/20 08:13:40;;;;;;;8.70;3.67;;;;;;;;;;8299593;28;20783;-60
2023/05/20 08:17:41;;;;;;;5.35;3.50;;;;;;;;;;8298895;28;20688;-59
2023/05/20 08:21:41;;;;;;;5.28;3.88;;;;;;;;;;8297994;28;20371;-60
2023/05/20 08:25:41;;;;;;;5.40;4.18;;;;;;;;;;8298882;28;20969;-59
2023/05/20 08:29:43;;;;;;;6.65;3.78;;;;;;;;;;8298516;28;20028;-60
2023/05/20 08:33:43;;;;;;;6.20;3.75;;;;;;;;;;8295808;28;20323;-60
2023/05/20 08:37:43;;;;;;;4.57;3.55;;;;;;;;;;8296091;28;20053;-59
2023/05/20 08:41:45;;;;;;;5.38;3.70;;;;;;;;;;8297290;28;20064;-60
2023/05/20 08:45:45;;;;;;;5.72;4.43;;;;;;;;;;8294590;28;20096;-60
2023/05/20 08:49:46;;;;;;;4.60;4.03;;;;;;;;;;8294929;28;20058;-60
2023/05/20 08:53:46;;;;;;;4.75;4.22;;;;;;;;;;8296943;28;20036;-59
2023/05/20 08:57:46;;;;;;;4.03;3.63;;;;;;;;;;8295480;28;20352;-59
2023/05/20 09:01:47;;;;;;;4.38;3.97;;;;;;;;;;8290396;28;20494;-58
2023/05/20 09:05:47;;;;;;;5.90;4.32;;;;;;;;;;8284394;28;20024;-60
2023/05/20 09:09:48;;;;;;;6.72;3.83;;;;;;;;;;8299162;28;20694;-59
2023/05/20 09:13:49;;;;;;;7.40;4.20;;;;;;;;;;8289133;28;20477;-59
2023/05/20 09:17:49;;;;;;;4.95;3.85;;;;;;;;;;8293350;28;20084;-59
2023/05/20 09:21:51;;;;;;;5.15;4.25;;;;;;;;;;8295091;28;20075;-59
2023/05/20 09:25:51;;;;;;;5.53;3.97;;;;;;;;;;8295478;28;20304;-60
2023/05/20 09:29:51;;;;;;;5.03;4.43;;;;;;;;;;8293718;28;20080;-59
2023/05/20 09:33:51;;;;;;;5.88;4.63;;;;;;;;;;8294611;28;20955;-59
2023/05/20 09:37:53;;;;;;;5.10;4.32;;;;;;;;;;8297822;28;20014;-59
2023/05/20 09:42:01;;;;;;;4.35;3.85;;;;;;;;;;8296498;28;20493;-59
2023/05/20 09:46:03;;;;;;;4.30;3.90;;;;;;;;;;8294440;28;20379;-60
2023/05/20 09:50:06;;;;;;;4.43;4.00;;;;;;;;;;8292505;28;20086;-60
2023/05/20 09:54:08;;;;;;;8.93;4.60;;;;;;;;;;8297039;28;20035;-62
2023/05/20 09:58:08;;;;;;;4.65;4.20;;;;;;;;;;8294426;28;20480;-60
2023/05/20 10:02:08;;;;;;;5.60;4.25;;;;;;;;;;8296206;28;20037;-60
2023/05/20 10:06:08;;;;;;;4.90;4.00;;;;;;;;;;8295030;28;20032;-60
2023/05/20 10:10:28;;;;;;;7.20;3.95;;;;;;;;;;8293198;28;20413;-60
2023/05/20 10:14:31;;;;;;;5.18;4.30;;;;;;;;;;8294508;28;20049;-60
2023/05/20 10:18:31;;;;;;;;;;;;;;;;;;8296940;28;20029;-60
2023/05/20 10:22:31;;;;;;;6.13;4.25;;;;;;;;;;8295329;28;19935;-60
2023/05/20 10:26:36;;;;;;;4.40;4.00;;;;;;;;;;8296358;28;20017;-60
2023/05/20 10:30:36;;;;;;;4.90;3.90;;;;;;;;;;8296267;28;20453;-60
2023/05/20 10:34:49;;;;;;;6.13;4.30;;;;;;;;;;8297341;28;20420;-61
2023/05/20 10:38:50;;;;;;;;;;;;;;;;;;8302427;28;20051;-60
2023/05/20 10:42:50;;;;;;;7.15;3.95;;;;;;;;;;8297390;28;20563;-60
2023/05/20 10:47:00;;;;;;;5.15;4.65;;;;;;;;;;8303115;28;20042;-60
2023/05/20 10:51:04;;;;;;;9.20;4.82;;;;;;;;;;8301282;28;20139;-60
2023/05/20 10:55:05;;;;;;;4.75;4.22;;;;;;;;;;8302045;28;20018;-60
2023/05/20 10:59:05;;;;;;;4.95;4.40;;;;;;;;;;8300243;28;20019;-60
2023/05/20 11:03:06;;;;;;;5.47;4.95;;;;;;;;;;8298182;28;20128;-60
2023/05/20 11:07:06;;;;;;;8.52;4.75;;;;;;;;;;8302390;28;20037;-61
2023/05/20 11:11:06;;;;;;;5.40;4.88;;;;;;;;;;8301055;28;20025;-61
2023/05/20 11:15:10;;;;;;;5.78;4.35;;;;;;;;;;8297930;28;20507;-61
2023/05/20 11:19:14;;;;;;;4.57;4.13;;;;;;;;;;8300031;28;20025;-60
2023/05/20 11:23:14;;;;;;;5.25;4.68;;;;;;;;;;8300508;28;20060;-60
2023/05/20 11:27:15;;;;;;;5.85;4.25;;;;;;;;;;8299873;28;20021;-60
2023/05/20 11:31:15;;;;;;;5.57;4.40;;;;;;;;;;8300089;28;20048;-60
2023/05/20 11:35:21;;;;;;;6.70;4.57;;;;;;;;;;8297944;28;20030;-60
2023/05/20 11:39:21;;;;;;;6.03;5.00;;;;;;;;;;8298798;28;20022;-60
2023/05/20 11:43:22;;;;;;;5.38;4.50;;;;;;;;;;8297780;28;20608;-60
2023/05/20 11:47:28;;;;;;;7.68;4.63;;;;;;;;;;8298517;28;20048;-60
2023/05/20 11:51:28;;;;;;;7.30;5.03;;;;;;;;;;8297545;28;20080;-60
2023/05/20 11:55:30;;;;;;;8.60;5.07;;;;;;;;;;8296919;28;20029;-60
2023/05/20 11:59:31;;;;;;;7.88;4.80;;;;;;;;;;8297170;28;20037;-60
2023/05/20 12:03:31;;;;;;;5.57;4.93;;;;;;;;;;8297634;28;20581;-60
2023/05/20 12:07:31;;;;;;;5.53;4.75;;;;;;;;;;8299379;28;20457;-61
2023/05/20 12:11:35;;;;;;;6.55;4.80;;;;;;;;;;8296167;28;20099;-60
2023/05/20 12:15:36;;;;;;;6.15;4.80;;;;;;;;;;8297874;28;20039;-60
2023/05/20 12:19:36;;;;;;;5.75;4.90;;;;;;;;;;8298456;28;20025;-60
2023/05/20 12:23:36;;;;;;;5.78;4.65;;;;;;;;;;8296803;28;20028;-61
2023/05/20 12:27:37;;;;;;;6.95;5.18;;;;;;;;;;8298985;28;20100;-60
2023/05/20 12:31:37;;;;;;;6.90;4.85;;;;;;;;;;8295025;28;20068;-60
2023/05/20 12:35:39;;;;;;;5.03;4.63;;;;;;;;;;8298109;28;20603;-60
2023/05/20 12:39:39;;;;;;;6.13;5.45;;;;;;;;;;8300571;28;20136;-61
2023/05/20 12:43:39;;;;;;;7.18;5.13;;;;;;;;;;8300018;28;20024;-60
2023/05/20 12:47:39;;;;;;;5.47;4.33;;;;;;;;;;8293457;28;20200;-60
2023/05/20 12:51:39;;;;;;;5.60;5.00;;;;;;;;;;8296777;28;20043;-60
2023/05/20 12:55:40;;;;;;;5.72;5.13;;;;;;;;;;8297168;28;20565;-60
2023/05/20 12:59:40;;;;;;;8.77;5.72;;;;;;;;;;8295538;28;20044;-60
2023/05/20 13:03:40;;;;;;;5.10;4.60;;;;;;;;;;8295055;28;20059;-60
2023/05/20 13:07:40;;;;;;;5.65;5.15;;;;;;;;;;8294663;28;20390;-60
2023/05/20 13:11:41;;;;;;;5.85;5.25;;;;;;;;;;8297445;28;20025;-60
2023/05/20 13:15:41;;;;;;;5.80;4.90;;;;;;;;;;8292863;28;20040;-60
2023/05/20 13:19:41;;;;;;;5.68;5.07;;;;;;;;;;8295318;28;20037;-60
2023/05/20 13:23:42;;;;;;;5.53;4.95;;;;;;;;;;8295873;28;20610;-60
2023/05/20 13:27:42;;;;;;;6.03;4.90;;;;;;;;;;8293288;28;20933;-60
2023/05/20 13:31:42;;;;;;;5.50;5.00;;;;;;;;;;8294698;28;20514;-59
2023/05/20 13:35:43;;;;;;;5.40;4.90;;;;;;;;;;8297010;28;20013;-59
2023/05/20 13:39:43;;;;;;;8.75;5.35;;;;;;;;;;8295166;28;20155;-60
2023/05/20 13:43:43;;;;;;;5.78;5.10;;;;;;;;;;8294880;28;20354;-60
2023/05/20 13:47:43;;;;;;;9.80;4.97;;;;;;;;;;8294620;28;20720;-60
2023/05/20 13:51:44;;;;;;;5.72;5.10;;;;;;;;;;8297080;28;20036;-60
2023/05/20 13:55:45;;;;;;;6.75;5.00;;;;;;;;;;8297485;28;20013;-60
2023/05/20 13:59:45;;;;;;;5.90;4.97;;;;;;;;;;8295848;28;20044;-60
2023/05/20 14:03:45;;;;;;;6.00;5.03;;;;;;;;;;8297488;28;20033;-60
2023/05/20 14:07:45;;;;;;;5.55;5.05;;;;;;;;;;8293153;28;20761;-60
2023/05/20 14:11:46;;;;;;;6.82;5.38;;;;;;;;;;8301981;28;20402;-60
2023/05/20 14:15:46;;;;;;;8.17;4.73;;;;;;;;;;8302037;28;20041;-60
2023/05/20 14:19:46;;;;;;;6.25;5.20;;;;;;;;;;8301551;28;20053;-60
2023/05/20 14:23:46;;;;;;;7.10;5.07;;;;;;;;;;8298627;28;20029;-60
2023/05/20 14:27:47;;;;;;;5.70;5.20;;;;;;;;;;8303830;28;20035;-60
2023/05/20 14:31:47;;;;;;;6.93;5.67;;;;;;;;;;8299552;28;20915;-60
2023/05/20 14:35:47;;;;;;;6.13;5.40;;;;;;;;;;8300744;28;20284;-63
2023/05/20 14:39:47;;;;;;;6.85;5.63;;;;;;;;;;8301908;28;20056;-59
2023/05/20 14:43:47;;;;;;;6.30;4.70;;;;;;;;;;8301154;28;20056;-59
2023/05/20 14:47:48;;;;;;;6.75;5.32;;;;;;;;;;8299118;28;20041;-60
2023/05/20 14:51:48;;;;;;;7.22;5.60;;;;;;;;;;8299978;28;20120;-60
2023/05/20 14:55:48;;;;;;;6.45;4.95;;;;;;;;;;8301734;28;20108;-59
2023/05/20 14:59:50;;;;;;;9.55;5.70;;;;;;;;;;8297566;28;20022;-60
2023/05/20 15:03:50;;;;;;;5.88;5.32;;;;;;;;;;8300464;28;20842;-60
2023/05/20 15:07:50;;;;;;;6.45;5.43;;;;;;;;;;8302037;28;20033;-60
2023/05/20 15:11:51;;;;;;;8.30;5.80;;;;;;;;;;8302179;28;20611;-60
2023/05/20 15:15:51;;;;;;;6.43;5.38;;;;;;;;;;8298758;28;20029;-60
2023/05/20 15:19:52;;;;;;;6.00;5.40;;;;;;;;;;8299455;28;20147;-60
2023/05/20 15:23:52;;;;;;;7.32;5.70;;;;;;;;;;8300517;28;20037;-60
2023/05/20 15:27:52;;;;;;;6.30;5.70;;;;;;;;;;8299791;28;20438;-60
2023/05/20 15:31:52;;;;;;;5.85;5.35;;;;;;;;;;8299389;28;20065;-60
2023/05/20 15:35:52;;;;;;;6.47;5.40;;;;;;;;;;8299631;28;20024;-60
2023/05/20 15:39:52;;;;;;;6.13;5.47;;;;;;;;;;8297827;28;20021;-61
2023/05/20 15:43:53;;;;;;;6.00;5.50;;;;;;;;;;8300662;28;20083;-59
2023/05/20 15:47:53;;;;;;;6.20;5.60;;;;;;;;;;8297570;28;20116;-59
2023/05/20 15:51:53;;;;;;;6.75;5.75;;;;;;;;;;8300307;28;20469;-59
2023/05/20 15:55:54;;;;;;;11.02;6.13;;;;;;;;;;8297203;28;20020;-59
2023/05/20 15:59:54;;;;;;;8.18;6.00;;;;;;;;;;8296849;28;20485;-59
2023/05/20 16:03:54;;;;;;;6.27;5.63;;;;;;;;;;8299198;28;20099;-60
2023/05/20 16:07:55;;;;;;;6.50;5.90;;;;;;;;;;8300837;28;20026;-59
2023/05/20 16:11:56;;;;;;;7.25;5.40;;;;;;;;;;8298902;28;20112;-60
2023/05/20 16:15:56;;;;;;;6.95;5.95;;;;;;;;;;8297262;28;20033;-60
2023/05/20 16:19:56;;;;;;;7.18;6.30;;;;;;;;;;8299556;28;20049;-59
2023/05/20 16:23:56;;;;;;;6.78;6.07;;;;;;;;;;8300246;28;20031;-60
2023/05/20 16:27:59;;;;;;;5.97;5.38;;;;;;;;;;8294450;28;20025;-59
2023/05/20 16:32:00;;;;;;;7.45;6.00;;;;;;;;;;8300526;28;20046;-59
2023/05/20 16:36:01;;;;;;;6.33;5.73;;;;;;;;;;8296241;28;20602;-59
2023/05/20 16:40:03;;;;;;;7.32;6.20;;;;;;;;;;8296593;28;20026;-60
2023/05/20 16:44:03;;;;;;;6.82;6.22;;;;;;;;;;8295295;28;20025;-58
2023/05/20 16:48:03;;;;;;;6.87;6.17;;;;;;;;;;8293032;28;20045;-59
2023/05/20 16:52:04;;;;;;;6.82;6.03;;;;;;;;;;8297265;28;20087;-59
2023/05/20 16:56:05;;;;;;;7.60;5.78;;;;;;;;;;8296817;28;20021;-59
2023/05/20 17:00:10;;;;;;;7.93;6.18;;;;;;;;;;8298410;28;20009;-60
2023/05/20 17:04:10;;;;;;;6.65;6.05;;;;;;;;;;8296088;28;20087;-59
2023/05/20 17:08:10;;;;;;;6.37;5.77;;;;;;;;;;8297063;28;20022;-59
2023/05/20 17:12:10;;;;;;;6.72;6.03;;;;;;;;;;8293765;28;20291;-60
2023/05/20 17:16:16;;;;;;;7.60;6.90;;;;;;;;;;8280439;28;20045;-59
2023/05/20 17:20:17;;;;;;;6.53;5.93;;;;;;;;;;8282101;28;20602;-59
2023/05/20 17:24:17;;;;;;;6.65;6.05;;;;;;;;;;8288310;28;20025;-59
2023/05/20 17:28:17;;;;;;;7.50;5.80;;;;;;;;;;8285908;28;20166;-59
2023/05/20 17:32:17;;;;;;;6.82;5.70;;;;;;;;;;8288263;28;20037;-59
2023/05/20 17:36:18;;;;;;;9.52;6.32;;;;;;;;;;8289289;28;20208;-59
2023/05/20 17:40:18;;;;;;;6.68;6.07;;;;;;;;;;8289695;28;20021;-59
2023/05/20 17:44:18;;;;;;;9.88;6.45;;;;;;;;;;8291239;28;20035;-59
2023/05/20 17:48:19;;;;;;;7.13;6.43;;;;;;;;;;8293963;28;20041;-60
2023/05/20 17:52:19;;;;;;;7.20;6.40;;;;;;;;;;8297561;28;20044;-59
2023/05/20 17:56:20;;;;;;;7.78;6.53;;;;;;;;;;8297752;28;20029;-59
2023/05/20 18:00:20;;;;;;;6.80;6.18;;;;;;;;;;8288265;28;20055;-59
2023/05/20 18:04:21;;;;;;;7.93;6.50;;;;;;;;;;8288711;28;20514;-60
2023/05/20 18:08:22;;;;;;;7.43;6.03;;;;;;;;;;8292667;28;20961;-59
2023/05/20 18:12:23;;;;;;;7.10;6.30;;;;;;;;;;8294607;28;20033;-59
2023/05/20 18:16:26;;;;;;;6.80;6.15;;;;;;;;;;8291224;28;20103;-60
2023/05/20 18:20:26;;;;;;;;;;;;;;;;;;8288031;28;20507;-60
2023/05/20 18:24:27;;;;;;;8.88;6.25;;;;;;;;;;8293418;28;20027;-59
2023/05/20 18:28:27;;;;;;;7.32;6.53;;;;;;;;;;8293321;28;20063;-60
2023/05/20 18:32:27;;;;;;;7.95;6.90;;;;;;;;;;8291017;28;20578;-59
2023/05/20 18:36:29;;;;;;;7.82;6.30;;;;;;;;;;8291311;28;20040;-60
2023/05/20 18:40:29;;;;;;;7.38;6.40;;;;;;;;;;8294845;28;20025;-59
2023/05/20 18:44:29;;;;;;;7.40;6.70;;;;;;;;;;8288905;28;21353;-59
2023/05/20 18:48:30;;;;;;;8.67;6.13;;;;;;;;;;8294303;28;20110;-59
2023/05/20 18:52:30;;;;;;;8.00;6.67;;;;;;;;;;8296180;28;20707;-59
2023/05/20 18:56:31;;;;;;;8.63;6.68;;;;;;;;;;8290021;28;20383;-60
2023/05/20 19:00:31;;;;;;;7.30;6.60;;;;;;;;;;8288889;28;20037;-59
2023/05/20 19:04:32;;;;;;;6.95;6.25;;;;;;;;;;8290481;28;20060;-59
2023/05/20 19:08:32;;;;;;;7.80;6.57;;;;;;;;;;8284013;28;20116;-59
2023/05/20 19:12:32;;;;;;;7.55;6.55;;;;;;;;;;8288483;28;20426;-59
2023/05/20 19:16:32;;;;;;;7.00;6.30;;;;;;;;;;8292017;28;20033;-59
2023/05/20 19:20:33;;;;;;;7.28;6.50;;;;;;;;;;8286899;28;20488;-59
2023/05/20 19:24:33;;;;;;;8.60;7.18;;;;;;;;;;8291788;28;20036;-59
2023/05/20 19:28:34;;;;;;;9.38;6.15;;;;;;;;;;8290488;28;20869;-59
2023/05/20 19:32:34;;;;;;;6.93;5.93;;;;;;;;;;8289262;28;20037;-59
2023/05/20 19:36:35;;;;;;;8.50;7.00;;;;;;;;;;8288754;28;20374;-59
2023/05/20 19:40:35;;;;;;;6.97;6.35;;;;;;;;;;8287664;28;20534;-60
2023/05/20 19:44:35;;;;;;;8.63;6.45;;;;;;;;;;8290074;28;20628;-59
2023/05/20 19:48:35;;;;;;;7.00;6.03;;;;;;;;;;8291777;28;20117;-59
2023/05/20 19:52:36;;;;;;;7.18;6.07;;;;;;;;;;8290098;28;20040;-58
2023/05/20 19:56:36;;;;;;;6.93;6.22;;;;;;;;;;8294690;28;20426;-58
2023/05/20 20:00:36;;;;;;;6.55;5.75;;;;;;;;;;8292298;28;20465;-59
2023/05/20 20:04:37;;;;;;;6.60;5.97;;;;;;;;;;8290567;28;20025;-59
2023/05/20 20:08:38;;;;;;;8.80;5.57;;;;;;;;;;8289438;28;20064;-58
2023/05/20 20:12:38;;;;;;;7.80;6.07;;;;;;;;;;8287372;28;20186;-58
2023/05/20 20:16:38;;;;;;;8.15;6.38;;;;;;;;;;8287754;28;20395;-59
2023/05/20 20:20:39;;;;;;;7.40;6.43;;;;;;;;;;8289269;28;20489;-58
2023/05/20 20:24:39;;;;;;;8.43;6.60;;;;;;;;;;8290695;28;20237;-59
2023/05/20 20:28:40;;;;;;;6.78;6.13;;;;;;;;;;8293173;28;20335;-59
2023/05/20 20:32:40;;;;;;;7.43;6.70;;;;;;;;;;8292041;28;20697;-60
2023/05/20 20:36:43;;;;;;;7.00;6.30;;;;;;;;;;8292081;28;20136;-59
2023/05/20 20:40:44;;;;;;;8.68;6.15;;;;;;;;;;8293696;28;20021;-58
2023/05/20 20:44:47;;;;;;;7.38;6.50;;;;;;;;;;8293644;28;20148;-58
2023/05/20 20:48:47;;;;;;;8.82;6.00;;;;;;;;;;8290817;28;20041;-59
2023/05/20 20:52:47;;;;;;;7.93;6.13;;;;;;;;;;8293948;28;20036;-59
2023/05/20 20:56:48;;;;;;;7.70;6.90;;;;;;;;;;8291309;28;20038;-59
2023/05/20 21:00:51;;;;;;;8.25;6.20;;;;;;;;;;8289918;28;20047;-59
2023/05/20 21:04:52;;;;;;;11.45;6.65;;;;;;;;;;8295476;28;20322;-59
2023/05/20 21:08:56;;;;;;;8.55;7.03;;;;;;;;;;8287361;28;20025;-58
2023/05/20 21:12:57;;;;;;;7.70;6.90;;;;;;;;;;8293428;28;20461;-58
2023/05/20 21:16:57;;;;;;;9.15;7.18;;;;;;;;;;8293845;28;20037;-58
2023/05/20 21:20:57;;;;;;;7.57;6.70;;;;;;;;;;8296813;28;20552;-58
2023/05/20 21:24:57;;;;;;;7.87;7.00;;;;;;;;;;8297285;28;20032;-59
2023/05/20 21:28:58;;;;;;;9.98;7.55;;;;;;;;;;8298394;28;20067;-58
2023/05/20 21:32:58;;;;;;;8.18;7.15;;;;;;;;;;8296136;28;20033;-59
2023/05/20 21:36:58;;;;;;;8.65;6.60;;;;;;;;;;8299240;28;20540;-59
2023/05/20 21:41:00;;;;;;;8.27;6.57;;;;;;;;;;8295464;28;20798;-58
2023/05/20 21:45:00;;;;;;;8.43;7.53;;;;;;;;;;8297255;28;20821;-58
2023/05/20 21:49:00;;;;;;;11.75;7.93;;;;;;;;;;8294396;28;20048;-59
2023/05/20 21:53:00;;;;;;;12.20;7.80;;;;;;;;;;8295895;28;20869;-59
2023/05/20 21:57:01;;;;;;;9.48;7.40;;;;;;;;;;8297863;28;20021;-59
2023/05/20 22:01:01;;;;;;;10.63;7.97;;;;;;;;;;8297522;28;20040;-59
2023/05/20 22:05:03;;;;;;;8.05;7.25;;;;;;;;;;8297368;28;20108;-58
2023/05/20 22:09:04;;;;;;;10.68;8.40;;;;;;;;;;8296793;28;20412;-58
2023/05/20 22:13:04;;;;;;;9.35;8.35;;;;;;;;;;8296749;28;20921;-59
2023/05/20 22:17:05;;;;;;;10.67;8.07;;;;;;;;;;8296353;28;20144;-59
2023/05/20 22:21:05;;;;;;;8.68;7.75;;;;;;;;;;8296398;28;20371;-60
2023/05/20 22:25:06;;;;;;;9.77;7.65;;;;;;;;;;8298228;28;20033;-59
2023/05/20 22:29:06;;;;;;;10.02;8.65;;;;;;;;;;8298700;28;20025;-58
2023/05/20 22:33:06;;;;;;;8.83;7.20;;;;;;;;;;8301852;28;20039;-59
2023/05/20 22:37:06;;;;;;;9.27;8.27;;;;;;;;;;8305033;28;20020;-59
2023/05/20 22:41:07;;;;;;;10.67;8.60;;;;;;;;;;8302891;28;20020;-60
2023/05/20 22:45:07;;;;;;;11.07;8.57;;;;;;;;;;8300946;28;20048;-60
2023/05/20 22:49:09;;;;;;;9.65;8.52;;;;;;;;;;8302296;28;20030;-59
2023/05/20 22:53:09;;;;;;;10.63;9.18;;;;;;;;;;8304160;28;20035;-58
2023/05/20 22:57:09;;;;;;;10.57;8.55;;;;;;;;;;8300605;28;20159;-59
2023/05/20 23:01:10;;;;;;;10.68;8.27;;;;;;;;;;8300675;28;20063;-59
2023/05/20 23:05:11;;;;;;;11.10;9.23;;;;;;;;;;8303653;28;20243;-59
2023/05/20 23:09:11;;;;;;;10.48;9.23;;;;;;;;;;8303784;28;20040;-58
2023/05/20 23:13:11;;;;;;;11.43;8.60;;;;;;;;;;8301477;28;20423;-58
2023/05/20 23:17:11;;;;;;;10.45;9.15;;;;;;;;;;8301970;28;20033;-58
2023/05/20 23:21:13;;;;;;;10.45;8.30;;;;;;;;;;8302647;28;20582;-59
2023/05/20 23:25:13;;;;;;;12.10;8.75;;;;;;;;;;8302253;28;20029;-59
2023/05/20 23:29:13;;;;;;;11.00;8.98;;;;;;;;;;8302890;28;20261;-59
2023/05/20 23:33:15;;;;;;;11.20;8.82;;;;;;;;;;8301382;28;20033;-59
2023/05/20 23:37:16;;;;;;;9.98;8.90;;;;;;;;;;8301006;28;20031;-59
2023/05/20 23:41:16;;;;;;;12.05;9.50;;;;;;;;;;8300109;28;20589;-59
2023/05/20 23:45:16;;;;;;;11.23;8.75;;;;;;;;;;8300616;28;20125;-59
2023/05/20 23:49:17;;;;;;;10.77;8.98;;;;;;;;;;8298669;28;20040;-59
2023/05/20 23:53:17;;;;;;;11.43;9.23;;;;;;;;;;8302235;28;20510;-60
2023/05/20 23:57:18;;;;;;;10.90;9.48;;;;;;;;;;8301618;28;20029;-58
